Time;durP1;ratioP1;P1;durP2;ratioP2;P2;SDS_P1;SDS_P2;PMS_P1;PMS_P2;Temp;Humidity;BMP_temperature;BMP_pressure;BME280_temperature;BME280_humidity;BME280_pressure;Samples;Min_cycle;Max_cycle;Signal;HPM_P1;HPM_P2
2022/07/22 03:01:23;;;;;;;0.70;0.70;;;22.90;69.20;;;;;;5704397;23;20505;-73
2022/07/22 03:03:50;;;;;;;1.03;0.93;;;22.80;69.30;;;;;;4977769;28;20489;-72
2022/07/22 03:06:17;;;;;;;0.97;0.97;;;22.80;69.40;;;;;;4977692;28;20442;-73
2022/07/22 03:08:43;;;;;;;1.03;1.03;;;22.80;69.40;;;;;;4977555;28;20485;-72
2022/07/22 03:11:10;;;;;;;0.90;0.90;;;22.70;69.70;;;;;;4977543;28;20462;-73
2022/07/22 03:13:37;;;;;;;1.00;0.80;;;22.60;70.00;;;;;;4977564;28;20449;-73
2022/07/22 03:16:04;;;;;;;0.80;0.80;;;22.50;70.30;;;;;;4978854;28;20504;-73
2022/07/22 03:18:32;;;;;;;1.03;0.97;;;22.50;70.50;;;;;;4977411;28;20496;-73
2022/07/22 03:20:58;;;;;;;1.20;1.00;;;22.40;70.70;;;;;;4977044;28;21003;-73
2022/07/22 03:23:25;;;;;;;0.80;0.80;;;22.40;70.80;;;;;;4977060;28;20461;-73
2022/07/22 03:25:52;;;;;;;0.80;0.80;;;22.40;70.70;;;;;;4977343;28;20501;-73
2022/07/22 03:28:18;;;;;;;0.90;0.90;;;22.50;70.70;;;;;;4977185;28;20481;-73
2022/07/22 03:30:45;;;;;;;0.93;0.93;;;22.50;70.80;;;;;;4977192;28;20465;-73
2022/07/22 03:33:11;;;;;;;1.10;1.00;;;22.40;70.90;;;;;;4977230;28;20485;-72
2022/07/22 03:35:40;;;;;;;0.90;0.90;;;22.40;70.90;;;;;;4976830;28;20945;-72
2022/07/22 03:38:06;;;;;;;1.00;0.90;;;22.40;71.10;;;;;;4976763;28;20619;-73
2022/07/22 03:40:33;;;;;;;0.90;0.90;;;22.50;71.10;;;;;;4977037;28;20454;-73
2022/07/22 03:43:00;;;;;;;1.20;1.10;;;22.40;71.10;;;;;;4977030;28;20207;-73
2022/07/22 03:45:26;;;;;;;0.97;0.97;;;22.50;71.10;;;;;;4977033;28;20211;-72
2022/07/22 03:47:54;;;;;;;1.00;1.00;;;22.40;71.20;;;;;;4976886;28;20445;-72
2022/07/22 03:50:21;;;;;;;1.20;1.10;;;22.40;71.30;;;;;;4976909;28;20461;-72
2022/07/22 03:52:49;;;;;;;1.10;1.10;;;22.30;71.60;;;;;;4976509;28;20880;-72
2022/07/22 03:55:15;;;;;;;0.90;0.90;;;22.30;71.90;;;;;;4976758;28;20497;-72
2022/07/22 03:57:42;;;;;;;0.90;0.90;;;22.20;72.20;;;;;;4976797;28;20445;-72
2022/07/22 04:00:09;;;;;;;0.90;0.90;;;22.20;72.30;;;;;;4976676;28;20485;-72
2022/07/22 04:02:36;;;;;;;1.07;1.00;;;22.10;72.60;;;;;;4976220;28;20759;-73
2022/07/22 04:05:03;;;;;;;0.90;0.90;;;22.20;72.40;;;;;;4976606;28;20500;-73
2022/07/22 04:07:30;;;;;;;0.90;0.90;;;22.10;72.70;;;;;;4976558;28;20457;-73
2022/07/22 04:10:04;;;;;;;0.97;0.97;;;22.10;72.80;;;;;;4976445;28;20537;-72
2022/07/22 04:12:32;;;;;;;1.00;0.90;;;22.00;72.90;;;;;;4976456;28;20473;-72
2022/07/22 04:14:59;;;;;;;1.00;0.90;;;22.00;73.20;;;;;;4976434;28;20528;-73
2022/07/22 04:17:26;;;;;;;0.90;0.90;;;22.00;73.10;;;;;;4976379;28;20453;-72
2022/07/22 04:19:52;;;;;;;1.00;1.00;;;22.10;73.00;;;;;;4976366;28;20504;-73
2022/07/22 04:22:19;;;;;;;0.97;0.97;;;22.10;73.20;;;;;;4975944;28;20796;-73
2022/07/22 04:24:46;;;;;;;0.80;0.80;;;22.20;73.00;;;;;;4976250;28;20541;-73
2022/07/22 04:27:14;;;;;;;1.00;0.90;;;22.20;73.00;;;;;;4976199;28;20261;-73
2022/07/22 04:29:41;;;;;;;1.00;1.00;;;22.30;72.80;;;;;;4976050;28;20528;-73
2022/07/22 04:32:07;;;;;;;1.30;1.20;;;22.20;73.00;;;;;;4976036;28;20517;-72
2022/07/22 04:34:34;;;;;;;0.80;0.80;;;22.20;73.00;;;;;;4976006;28;20454;-72
2022/07/22 04:37:01;;;;;;;1.20;1.20;;;22.20;73.30;;;;;;4976002;28;20257;-73
2022/07/22 04:39:27;;;;;;;1.20;1.10;;;22.20;73.10;;;;;;4975936;28;20446;-72
2022/07/22 04:41:54;;;;;;;1.00;1.00;;;22.30;73.10;;;;;;4975848;28;20230;-73
2022/07/22 04:44:22;;;;;;;1.10;1.10;;;22.30;73.00;;;;;;4975863;28;20509;-73
2022/07/22 04:46:48;;;;;;;0.98;0.98;;;22.10;73.50;;;;;;4975222;28;20449;-73
2022/07/22 04:49:15;;;;;;;1.00;1.00;;;22.10;74.00;;;;;;4975384;28;20612;-73
2022/07/22 04:51:42;;;;;;;0.90;0.90;;;22.10;73.70;;;;;;4975339;28;20896;-73
2022/07/22 04:54:08;;;;;;;1.20;1.20;;;22.20;73.70;;;;;;4975677;28;20876;-73
2022/07/22 04:56:35;;;;;;;1.10;1.00;;;22.30;73.40;;;;;;4975648;28;20516;-72
2022/07/22 04:59:02;;;;;;;1.00;1.00;;;22.40;73.10;;;;;;4975590;28;20450;-72
2022/07/22 05:01:30;;;;;;;0.90;0.90;;;22.40;73.50;;;;;;4975080;28;21056;-72
2022/07/22 05:03:56;;;;;;;1.30;1.20;;;22.50;73.20;;;;;;4975485;28;20525;-73
2022/07/22 05:06:24;;;;;;;1.10;1.00;;;22.60;72.80;;;;;;4975145;28;20457;-73
2022/07/22 05:08:50;;;;;;;0.87;0.87;;;22.70;72.50;;;;;;4975339;28;20226;-73
2022/07/22 05:11:17;;;;;;;0.80;0.80;;;22.90;71.90;;;;;;4975344;28;20542;-72
2022/07/22 05:13:44;;;;;;;0.93;0.90;;;23.00;71.90;;;;;;4975381;28;20332;-73
2022/07/22 05:16:11;;;;;;;1.00;1.00;;;23.10;71.60;;;;;;4974985;28;20504;-73
2022/07/22 05:18:39;;;;;;;1.20;1.10;;;23.20;71.40;;;;;;4975237;28;20475;-72
2022/07/22 05:21:06;;;;;;;1.00;1.00;;;23.10;71.20;;;;;;4975155;28;20462;-73
2022/07/22 05:23:33;;;;;;;1.00;1.00;;;23.10;71.50;;;;;;4974931;28;20930;-73
2022/07/22 05:25:59;;;;;;;1.00;1.00;;;23.00;72.00;;;;;;4974825;28;20508;-73
2022/07/22 05:28:26;;;;;;;1.10;1.03;;;22.90;72.30;;;;;;4975039;28;20482;-73
2022/07/22 05:30:52;;;;;;;0.90;0.90;;;22.90;72.30;;;;;;4974942;28;20528;-73
2022/07/22 05:33:19;;;;;;;0.90;0.90;;;23.00;72.20;;;;;;4975030;28;20471;-72
2022/07/22 05:35:47;;;;;;;0.90;0.90;;;22.90;72.50;;;;;;4974947;28;20509;-72
2022/07/22 05:38:14;;;;;;;1.40;1.30;;;23.00;71.80;;;;;;4974864;28;20453;-73
2022/07/22 05:40:40;;;;;;;1.10;1.10;;;23.00;72.50;;;;;;4974810;28;20453;-72
2022/07/22 05:43:07;;;;;;;1.00;1.00;;;22.80;72.90;;;;;;4974860;28;20454;-72
2022/07/22 05:45:34;;;;;;;1.20;1.10;;;22.70;73.20;;;;;;4974512;28;20942;-73
2022/07/22 05:48:01;;;;;;;1.07;1.07;;;22.90;73.30;;;;;;4974805;28;20454;-72
2022/07/22 05:50:27;;;;;;;0.90;0.90;;;22.90;72.50;;;;;;4974326;28;20916;-73
2022/07/22 05:52:55;;;;;;;1.07;1.07;;;22.80;73.00;;;;;;4974474;28;20237;-73
2022/07/22 05:55:22;;;;;;;1.17;1.07;;;23.10;72.40;;;;;;4974621;28;20477;-73
2022/07/22 05:57:49;;;;;;;1.25;1.15;;;23.20;72.30;;;;;;4973434;28;20941;-73
2022/07/22 06:00:16;;;;;;;1.47;1.00;;;23.50;71.80;;;;;;4974245;28;20234;-73
2022/07/22 06:02:43;;;;;;;1.00;1.00;;;23.90;70.90;;;;;;4974166;28;21044;-73
2022/07/22 06:05:09;;;;;;;1.03;1.00;;;24.00;70.10;;;;;;4974496;28;20481;-73
2022/07/22 06:07:36;;;;;;;0.80;0.80;;;24.20;69.80;;;;;;4974597;28;20450;-73
2022/07/22 06:10:05;;;;;;;1.00;1.00;;;24.40;69.50;;;;;;4974529;28;20540;-73
2022/07/22 06:12:32;;;;;;;1.20;1.10;;;24.50;69.20;;;;;;4974452;28;20473;-73
2022/07/22 06:14:58;;;;;;;1.00;1.00;;;24.70;68.30;;;;;;4974498;28;20450;-73
2022/07/22 06:17:25;;;;;;;1.30;1.20;;;24.80;67.60;;;;;;4974453;28;20450;-72
2022/07/22 06:19:52;;;;;;;1.07;1.07;;;24.70;67.90;;;;;;4974475;28;20492;-73
2022/07/22 06:22:18;;;;;;;1.00;1.00;;;24.50;69.00;;;;;;4974384;28;20505;-73
2022/07/22 06:24:45;;;;;;;1.10;1.00;;;24.70;68.50;;;;;;4974450;28;20467;-73
2022/07/22 06:27:13;;;;;;;0.93;0.93;;;24.60;68.40;;;;;;4974024;28;20845;-73
2022/07/22 06:29:41;;;;;;;1.10;1.10;;;24.90;67.70;;;;;;4973997;28;21109;-73
2022/07/22 06:32:08;;;;;;;1.17;1.07;;;25.20;67.20;;;;;;4974278;28;20466;-73
2022/07/22 06:34:35;;;;;;;1.00;1.00;;;25.30;66.90;;;;;;4974381;28;20532;-73
2022/07/22 06:37:01;;;;;;;1.33;1.23;;;25.10;67.20;;;;;;4974301;28;20450;-73
2022/07/22 06:39:28;;;;;;;1.17;1.10;;;25.00;67.70;;;;;;4974087;28;20446;-72
2022/07/22 06:41:55;;;;;;;1.03;1.03;;;24.80;68.20;;;;;;4974061;28;20469;-73
2022/07/22 06:44:23;;;;;;;1.17;1.17;;;24.80;68.40;;;;;;4974255;28;20450;-73
2022/07/22 06:46:49;;;;;;;1.20;1.10;;;25.00;68.10;;;;;;4974247;28;20512;-72
2022/07/22 06:49:16;;;;;;;0.90;0.90;;;24.90;67.90;;;;;;4974141;28;20485;-73
2022/07/22 06:51:43;;;;;;;1.20;1.20;;;24.80;68.10;;;;;;4974141;28;20466;-72
2022/07/22 06:54:09;;;;;;;1.00;1.00;;;24.80;67.70;;;;;;4973801;28;20868;-73
2022/07/22 06:56:36;;;;;;;1.10;1.00;;;24.90;68.10;;;;;;4973814;28;20827;-73
2022/07/22 06:59:03;;;;;;;1.20;1.20;;;25.00;68.00;;;;;;4973764;28;20939;-73
2022/07/22 07:01:31;;;;;;;1.47;1.17;;;24.90;68.40;;;;;;4973626;28;20489;-73
2022/07/22 07:03:57;;;;;;;1.17;1.17;;;25.30;67.00;;;;;;4973656;28;20462;-73
2022/07/22 07:06:24;;;;;;;1.00;1.00;;;25.40;67.20;;;;;;4973962;28;20446;-73
2022/07/22 07:08:51;;;;;;;1.20;1.10;;;25.50;67.80;;;;;;4975087;28;20496;-73
2022/07/22 07:11:17;;;;;;;1.10;1.10;;;25.20;67.50;;;;;;4977487;28;20458;-73
2022/07/22 07:13:44;;;;;;;1.40;1.30;;;25.10;67.70;;;;;;4977566;28;20865;-72
2022/07/22 07:16:11;;;;;;;0.90;0.90;;;25.30;66.50;;;;;;4977218;28;20678;-73
2022/07/22 07:18:39;;;;;;;0.90;0.90;;;25.10;67.40;;;;;;4977383;28;20450;-73
2022/07/22 07:21:06;;;;;;;0.80;0.80;;;25.30;67.70;;;;;;4977365;28;20528;-73
2022/07/22 07:23:33;;;;;;;1.30;1.20;;;25.40;67.30;;;;;;4977058;28;20500;-73
2022/07/22 07:25:59;;;;;;;0.80;0.80;;;25.10;66.80;;;;;;4977001;28;20450;-73
2022/07/22 07:28:26;;;;;;;1.00;1.00;;;25.00;65.80;;;;;;4976982;28;20949;-73
2022/07/22 07:30:53;;;;;;;1.00;0.90;;;25.20;66.60;;;;;;4977226;28;20490;-74
2022/07/22 07:33:20;;;;;;;0.90;0.90;;;25.10;66.90;;;;;;4977233;28;20501;-72
2022/07/22 07:35:48;;;;;;;0.80;0.80;;;25.20;66.90;;;;;;4977220;28;20451;-73
2022/07/22 07:38:14;;;;;;;1.00;1.00;;;25.30;66.70;;;;;;4977193;28;20457;-73
2022/07/22 07:40:41;;;;;;;1.20;1.10;;;25.30;67.10;;;;;;4976999;28;20501;-73
2022/07/22 07:43:08;;;;;;;1.10;1.00;;;25.40;66.70;;;;;;4977006;28;20454;-73
2022/07/22 07:45:36;;;;;;;1.13;1.03;;;25.40;66.00;;;;;;4976910;28;20461;-73
2022/07/22 07:48:04;;;;;;;1.00;1.00;;;25.40;66.50;;;;;;4976899;28;20532;-73
2022/07/22 07:50:32;;;;;;;1.20;1.10;;;25.40;66.70;;;;;;4976732;28;20230;-74
2022/07/22 07:53:00;;;;;;;1.10;1.10;;;25.60;65.70;;;;;;4976735;28;20590;-73
2022/07/22 07:55:27;;;;;;;1.07;1.07;;;25.90;65.70;;;;;;4976508;28;20812;-73
2022/07/22 07:57:54;;;;;;;0.90;0.90;;;26.30;65.30;;;;;;4976743;28;20453;-74
2022/07/22 08:00:23;;;;;;;1.37;1.20;;;26.00;64.80;;;;;;4976424;28;20949;-73
2022/07/22 08:02:50;;;;;;;0.90;0.90;;;26.10;63.80;;;;;;4976315;28;20950;-73
2022/07/22 08:05:18;;;;;;;1.27;1.27;;;26.00;64.90;;;;;;4976607;28;20449;-73
2022/07/22 08:07:45;;;;;;;1.43;1.33;;;26.10;64.00;;;;;;4976636;28;20504;-74
2022/07/22 08:10:13;;;;;;;1.37;1.27;;;26.10;64.70;;;;;;4976166;28;20482;-73
2022/07/22 08:12:40;;;;;;;1.10;1.00;;;26.30;64.00;;;;;;4976463;28;20469;-74
2022/07/22 08:15:08;;;;;;;1.00;1.00;;;26.30;63.30;;;;;;4976142;28;20924;-73
2022/07/22 08:17:35;;;;;;;1.20;1.10;;;26.40;64.60;;;;;;4976022;28;20878;-73
2022/07/22 08:20:01;;;;;;;2.93;1.30;;;26.00;63.70;;;;;;4975377;28;20819;-74
2022/07/22 08:22:28;;;;;;;1.07;1.00;;;26.10;63.50;;;;;;4976219;28;20470;-73
2022/07/22 08:24:55;;;;;;;1.00;1.00;;;25.90;65.90;;;;;;4976246;28;20466;-74
2022/07/22 08:27:23;;;;;;;1.30;1.20;;;25.80;65.20;;;;;;4976263;28;20500;-73
2022/07/22 08:29:49;;;;;;;1.75;1.20;;;25.90;64.60;;;;;;4975831;28;21060;-73
2022/07/22 08:32:16;;;;;;;0.90;0.90;;;25.90;65.90;;;;;;4976050;28;20227;-73
2022/07/22 08:34:43;;;;;;;1.27;1.17;;;26.00;63.60;;;;;;4976067;28;20458;-72
2022/07/22 08:37:10;;;;;;;1.20;1.10;;;25.70;64.10;;;;;;4976031;28;20497;-73
2022/07/22 08:39:37;;;;;;;1.00;1.00;;;25.30;65.20;;;;;;4975976;28;20507;-73
2022/07/22 08:42:04;;;;;;;1.13;1.07;;;25.50;66.60;;;;;;4975912;28;20234;-74
2022/07/22 08:44:33;;;;;;;1.20;0.80;;;25.80;65.30;;;;;;4975587;28;20864;-74
2022/07/22 08:47:01;;;;;;;0.97;0.97;;;26.00;66.50;;;;;;4975535;28;20993;-74
2022/07/22 08:49:28;;;;;;;1.10;1.03;;;26.30;65.50;;;;;;4975708;28;20453;-74
2022/07/22 08:51:54;;;;;;;1.00;1.00;;;26.60;62.90;;;;;;4975715;28;20466;-74
2022/07/22 08:54:21;;;;;;;0.90;0.90;;;26.70;63.10;;;;;;4975713;28;20477;-74
2022/07/22 08:56:48;;;;;;;0.80;0.80;;;26.90;63.60;;;;;;4975372;28;21008;-74
2022/07/22 08:59:15;;;;;;;0.97;0.97;;;26.90;62.00;;;;;;4975303;28;20938;-74
2022/07/22 09:02:02;;;;;;;1.00;1.00;;;26.60;63.30;;;;;;4975255;28;20490;-74
2022/07/22 09:04:28;;;;;;;1.47;1.10;;;27.00;62.90;;;;;;4975549;28;20438;-74
2022/07/22 09:06:55;;;;;;;1.00;0.90;;;27.00;60.60;;;;;;4975491;28;20509;-74
2022/07/22 09:09:30;;;;;;;0.90;0.90;;;26.90;61.30;;;;;;4975351;28;20207;-74
2022/07/22 09:12:05;;;;;;;1.00;0.90;;;26.90;61.80;;;;;;4975615;28;20886;-78
2022/07/22 09:14:45;;;;;;;0.80;0.80;;;26.90;61.80;;;;;;4975181;28;20429;-78
2022/07/22 09:17:26;;;;;;;1.00;1.00;;;27.00;60.50;;;;;;4977205;28;20441;-78
2022/07/22 09:19:53;;;;;;;0.90;0.90;;;27.00;60.60;;;;;;4975501;28;20449;-78
2022/07/22 09:22:34;;;;;;;0.80;0.80;;;27.30;62.00;;;;;;4975770;28;20226;-75
2022/07/22 09:25:27;;;;;;;0.83;0.83;;;27.50;59.50;;;;;;4975193;28;20460;-75
2022/07/22 09:27:57;;;;;;;1.00;1.00;;;27.50;59.70;;;;;;4975970;28;20485;-75
2022/07/22 09:30:25;;;;;;;0.80;0.80;;;27.60;60.70;;;;;;4974984;28;20580;-75
2022/07/22 09:32:56;;;;;;;0.80;0.80;;;27.90;58.90;;;;;;4974534;28;21050;-75
2022/07/22 09:35:23;;;;;;;0.80;0.80;;;28.10;58.80;;;;;;4975110;28;20533;-75
2022/07/22 09:37:52;;;;;;;0.90;0.90;;;28.10;56.10;;;;;;4974999;28;20247;-75
2022/07/22 09:40:20;;;;;;;1.00;1.00;;;28.00;56.70;;;;;;4974892;28;20524;-75
2022/07/22 09:42:50;;;;;;;0.88;0.80;;;28.00;56.60;;;;;;4974960;28;20450;-76
2022/07/22 09:45:17;;;;;;;0.80;0.80;;;28.20;57.80;;;;;;4974939;28;20210;-75
2022/07/22 09:47:45;;;;;;;1.10;1.00;;;28.50;57.90;;;;;;4974789;28;20446;-75
2022/07/22 09:50:24;;;;;;;0.90;0.80;;;28.60;57.20;;;;;;4974705;28;20486;-74
2022/07/22 09:52:53;;;;;;;0.80;0.80;;;28.80;56.10;;;;;;4974839;28;20489;-75
2022/07/22 09:55:23;;;;;;;0.80;0.80;;;28.70;56.70;;;;;;4974695;28;20497;-75
2022/07/22 09:57:50;;;;;;;1.23;0.90;;;28.80;56.30;;;;;;4974414;28;20262;-75
2022/07/22 10:00:19;;;;;;;0.77;0.77;;;29.00;56.50;;;;;;4974652;28;20497;-75
2022/07/22 10:02:48;;;;;;;0.80;0.80;;;29.20;56.80;;;;;;4974230;28;20235;-75
2022/07/22 10:05:22;;;;;;;0.80;0.80;;;29.60;55.90;;;;;;4974644;28;20446;-74
2022/07/22 10:07:50;;;;;;;1.40;0.90;;;29.40;56.20;;;;;;4974263;28;20918;-75
2022/07/22 10:10:19;;;;;;;0.80;0.80;;;29.40;55.60;;;;;;4974409;28;20570;-74
2022/07/22 10:12:49;;;;;;;0.97;0.87;;;29.20;56.00;;;;;;4974478;28;20230;-75
2022/07/22 10:15:15;;;;;;;0.80;0.80;;;29.00;56.10;;;;;;4974519;28;20442;-74
2022/07/22 10:17:44;;;;;;;1.10;0.97;;;29.10;56.80;;;;;;4974173;28;20874;-75
2022/07/22 10:20:12;;;;;;;0.90;0.90;;;29.20;55.60;;;;;;4974502;28;20453;-75
2022/07/22 10:22:55;;;;;;;1.00;0.90;;;29.10;56.90;;;;;;4974403;28;20470;-75
2022/07/22 10:25:24;;;;;;;0.80;0.80;;;29.30;56.40;;;;;;4974522;28;20437;-75
2022/07/22 10:27:53;;;;;;;1.40;0.93;;;29.10;56.50;;;;;;4974454;28;20892;-75
2022/07/22 10:30:22;;;;;;;0.80;0.80;;;29.20;56.60;;;;;;4974297;28;20482;-75
2022/07/22 10:33:04;;;;;;;0.93;0.93;;;29.40;55.90;;;;;;4974350;28;20504;-74
2022/07/22 10:35:31;;;;;;;1.00;0.90;;;29.30;54.90;;;;;;4974397;28;20434;-75
2022/07/22 10:38:19;;;;;;;0.97;0.90;;;29.40;55.20;;;;;;4974325;28;20501;-75
2022/07/22 10:40:54;;;;;;;0.90;0.90;;;29.60;55.00;;;;;;4974250;28;20471;-75
2022/07/22 10:43:22;;;;;;;0.80;0.80;;;29.80;55.70;;;;;;4974828;28;20452;-75
2022/07/22 10:45:52;;;;;;;0.80;0.80;;;30.00;56.00;;;;;;4977788;28;20850;-75
2022/07/22 10:48:21;;;;;;;0.80;0.80;;;29.80;54.70;;;;;;4978081;28;20446;-75
2022/07/22 10:50:51;;;;;;;0.80;0.80;;;29.60;54.90;;;;;;4977559;28;21008;-75
2022/07/22 10:53:21;;;;;;;0.90;0.90;;;29.40;55.60;;;;;;4977959;28;20442;-74
2022/07/22 10:56:13;;;;;;;0.90;0.90;;;29.70;56.10;;;;;;4977893;28;20459;-75
2022/07/22 10:58:52;;;;;;;0.70;0.70;;;29.40;55.80;;;;;;4977904;28;20430;-75
2022/07/22 11:01:21;;;;;;;0.70;0.70;;;29.70;56.20;;;;;;4977530;28;20565;-75
2022/07/22 11:03:49;;;;;;;0.90;0.90;;;29.80;55.20;;;;;;4977791;28;20457;-75
2022/07/22 11:06:21;;;;;;;1.00;1.00;;;30.20;55.40;;;;;;4977739;28;20458;-75
2022/07/22 11:08:52;;;;;;;0.77;0.77;;;30.40;55.90;;;;;;4977408;28;20855;-75
2022/07/22 11:11:19;;;;;;;0.80;0.80;;;30.70;54.00;;;;;;4977544;28;20485;-75
2022/07/22 11:13:46;;;;;;;1.00;1.00;;;30.90;52.90;;;;;;4977670;28;20501;-75
2022/07/22 11:16:18;;;;;;;0.70;0.70;;;31.00;53.50;;;;;;4977526;28;20445;-75
2022/07/22 11:18:46;;;;;;;1.00;0.90;;;30.80;53.80;;;;;;4977504;28;20818;-75
2022/07/22 11:21:16;;;;;;;0.80;0.80;;;31.20;54.40;;;;;;4977359;28;20285;-75
2022/07/22 11:23:43;;;;;;;0.80;0.80;;;30.70;52.70;;;;;;4977406;28;20536;-75
2022/07/22 11:26:15;;;;;;;0.90;0.90;;;30.60;52.80;;;;;;4977070;28;20960;-75
2022/07/22 11:28:43;;;;;;;0.73;0.73;;;30.90;52.10;;;;;;4977452;28;20804;-75
2022/07/22 11:31:11;;;;;;;0.80;0.80;;;31.10;51.40;;;;;;4977097;28;20489;-75
2022/07/22 11:33:37;;;;;;;0.70;0.70;;;31.20;48.80;;;;;;4977259;28;20450;-75
2022/07/22 11:36:06;;;;;;;0.80;0.70;;;31.20;50.00;;;;;;4977291;28;20500;-76
2022/07/22 11:38:41;;;;;;;0.80;0.80;;;31.10;49.60;;;;;;4977170;28;20454;-73
2022/07/22 11:41:08;;;;;;;1.10;1.00;;;31.10;50.50;;;;;;4977061;28;20230;-76
2022/07/22 11:43:40;;;;;;;0.70;0.70;;;30.80;52.00;;;;;;4977037;28;20450;-75
2022/07/22 11:46:07;;;;;;;0.70;0.70;;;31.00;52.60;;;;;;4976698;28;21001;-75
2022/07/22 11:48:34;;;;;;;0.90;0.90;;;31.10;51.50;;;;;;4976993;28;20210;-75
2022/07/22 11:51:02;;;;;;;0.80;0.80;;;31.40;51.10;;;;;;4976767;28;20548;-75
2022/07/22 11:53:28;;;;;;;0.80;0.80;;;31.50;51.60;;;;;;4976894;28;20449;-76
2022/07/22 11:55:58;;;;;;;0.70;0.70;;;31.80;51.10;;;;;;4976765;28;20450;-75
2022/07/22 11:58:43;;;;;;;0.70;0.70;;;31.90;50.00;;;;;;4976807;28;20537;-73
2022/07/22 12:01:11;;;;;;;0.80;0.80;;;31.60;49.00;;;;;;4976300;28;20920;-75
2022/07/22 12:03:40;;;;;;;0.90;0.90;;;31.60;49.70;;;;;;4976711;28;20438;-75
2022/07/22 12:06:09;;;;;;;0.80;0.80;;;31.60;50.20;;;;;;4976614;28;20211;-76
2022/07/22 12:08:41;;;;;;;0.90;0.70;;;31.80;50.50;;;;;;4976616;28;20450;-75
2022/07/22 12:11:08;;;;;;;1.23;1.13;;;31.90;48.80;;;;;;4976177;28;21068;-75
2022/07/22 12:13:34;;;;;;;0.70;0.70;;;31.70;49.50;;;;;;4976189;28;20882;-75
2022/07/22 12:16:21;;;;;;;0.70;0.70;;;31.80;50.30;;;;;;4976500;28;20505;-75
2022/07/22 12:18:53;;;;;;;0.80;0.80;;;31.70;50.50;;;;;;4976465;28;20430;-75
2022/07/22 12:21:21;;;;;;;0.70;0.70;;;31.50;51.30;;;;;;4976369;28;20269;-75
2022/07/22 12:23:51;;;;;;;0.80;0.80;;;31.80;49.10;;;;;;4976339;28;20460;-75
2022/07/22 12:26:18;;;;;;;1.50;0.73;;;32.00;49.20;;;;;;4976033;28;20886;-75
2022/07/22 12:28:45;;;;;;;0.70;0.70;;;32.10;49.40;;;;;;4976280;28;20513;-75
2022/07/22 12:31:13;;;;;;;0.73;0.70;;;32.30;49.50;;;;;;4976036;28;20552;-75
2022/07/22 12:33:48;;;;;;;1.07;0.90;;;32.50;49.20;;;;;;4976128;28;20445;-75
2022/07/22 12:36:15;;;;;;;0.80;0.70;;;32.70;48.50;;;;;;4976108;28;20434;-74
2022/07/22 12:38:42;;;;;;;0.90;0.90;;;32.60;48.10;;;;;;4976030;28;20532;-75
2022/07/22 12:41:26;;;;;;;0.70;0.70;;;32.10;48.40;;;;;;4975869;28;20462;-75
2022/07/22 12:43:52;;;;;;;0.80;0.80;;;32.10;49.40;;;;;;4975703;28;21010;-75
2022/07/22 12:46:22;;;;;;;0.80;0.80;;;32.20;49.60;;;;;;4975798;28;20528;-75
2022/07/22 12:48:53;;;;;;;0.80;0.80;;;32.50;49.20;;;;;;4975738;28;20826;-75
2022/07/22 12:51:20;;;;;;;0.80;0.80;;;32.30;48.60;;;;;;4975568;28;20486;-75
2022/07/22 12:53:47;;;;;;;0.80;0.70;;;32.30;48.80;;;;;;4975379;28;20508;-75
2022/07/22 12:56:13;;;;;;;0.97;0.90;;;32.30;49.70;;;;;;4975633;28;20284;-75
2022/07/22 12:58:41;;;;;;;0.70;0.70;;;32.30;48.20;;;;;;4975581;28;20454;-75
2022/07/22 13:01:09;;;;;;;0.80;0.80;;;32.30;47.90;;;;;;4975263;28;20544;-75
2022/07/22 13:03:37;;;;;;;0.80;0.80;;;32.60;49.00;;;;;;4975634;28;20456;-75
2022/07/22 13:06:06;;;;;;;0.80;0.80;;;32.90;47.80;;;;;;4975024;28;20802;-75
2022/07/22 13:08:33;;;;;;;0.80;0.80;;;32.60;48.60;;;;;;4975458;28;20453;-75
2022/07/22 13:11:00;;;;;;;0.90;0.90;;;32.80;47.90;;;;;;4975281;28;20238;-75
2022/07/22 13:13:26;;;;;;;0.80;0.80;;;32.90;48.80;;;;;;4975303;28;20453;-75
2022/07/22 13:15:53;;;;;;;0.80;0.80;;;32.80;48.30;;;;;;4975299;28;20513;-75
2022/07/22 13:18:20;;;;;;;0.70;0.70;;;32.90;48.60;;;;;;4975249;28;20457;-75
2022/07/22 13:20:48;;;;;;;0.80;0.80;;;33.20;47.80;;;;;;4975176;28;20466;-75
2022/07/22 13:23:15;;;;;;;0.80;0.80;;;33.10;47.20;;;;;;4975192;28;20442;-75
2022/07/22 13:25:42;;;;;;;1.10;0.90;;;33.30;47.00;;;;;;4975159;28;20454;-75
2022/07/22 13:28:08;;;;;;;0.90;0.90;;;33.40;45.90;;;;;;4975148;28;20457;-75
2022/07/22 13:30:36;;;;;;;1.83;0.90;;;33.70;46.30;;;;;;4975023;28;20445;-75
2022/07/22 13:33:03;;;;;;;0.70;0.70;;;33.40;46.20;;;;;;4974673;28;20478;-75
2022/07/22 13:35:30;;;;;;;0.73;0.70;;;33.30;47.20;;;;;;4975049;28;20546;-75
2022/07/22 13:37:58;;;;;;;0.80;0.80;;;33.50;46.90;;;;;;4974979;28;20484;-75
2022/07/22 13:40:25;;;;;;;0.70;0.60;;;33.70;47.90;;;;;;4974838;28;20556;-75
2022/07/22 13:42:52;;;;;;;0.80;0.80;;;33.80;47.80;;;;;;4974870;28;20457;-75
2022/07/22 13:45:19;;;;;;;0.77;0.77;;;33.80;47.20;;;;;;4974869;28;20454;-75
2022/07/22 13:47:46;;;;;;;0.73;0.73;;;33.90;45.40;;;;;;4974553;28;20482;-75
2022/07/22 13:50:13;;;;;;;0.70;0.60;;;33.90;46.10;;;;;;4974782;28;20454;-75
2022/07/22 13:52:39;;;;;;;0.70;0.70;;;33.70;45.60;;;;;;4974509;28;20537;-75
2022/07/22 13:55:08;;;;;;;0.70;0.70;;;33.80;44.90;;;;;;4974597;28;20508;-75
2022/07/22 13:57:36;;;;;;;0.70;0.63;;;33.60;46.20;;;;;;4974698;28;20504;-75
2022/07/22 14:00:03;;;;;;;0.80;0.80;;;33.80;45.50;;;;;;4974636;28;20239;-75
2022/07/22 14:02:30;;;;;;;0.70;0.60;;;34.00;45.10;;;;;;4974211;28;20470;-75
2022/07/22 14:04:56;;;;;;;0.75;0.73;;;34.30;46.10;;;;;;4974882;28;20445;-74
2022/07/22 14:07:23;;;;;;;0.80;0.80;;;34.10;44.10;;;;;;4974570;28;20288;-75
2022/07/22 14:09:50;;;;;;;1.03;0.80;;;34.30;44.60;;;;;;4974573;28;20455;-75
2022/07/22 14:12:18;;;;;;;0.80;0.80;;;34.70;45.50;;;;;;4974161;28;21004;-75
2022/07/22 14:14:44;;;;;;;0.70;0.70;;;34.80;43.90;;;;;;4974283;28;20454;-75
2022/07/22 14:17:11;;;;;;;0.80;0.80;;;35.00;43.60;;;;;;4974321;28;20941;-74
2022/07/22 14:19:38;;;;;;;0.70;0.70;;;35.10;44.20;;;;;;4977315;28;20485;-74
2022/07/22 14:22:04;;;;;;;0.80;0.80;;;34.90;43.90;;;;;;4978487;28;20516;-75
2022/07/22 14:24:31;;;;;;;1.20;0.80;;;34.80;43.70;;;;;;4978199;28;20538;-74
2022/07/22 14:26:58;;;;;;;0.77;0.77;;;34.40;44.70;;;;;;4978485;28;20450;-74
2022/07/22 14:29:26;;;;;;;0.70;0.70;;;34.10;45.70;;;;;;4978436;28;20454;-74
2022/07/22 14:31:53;;;;;;;0.70;0.70;;;34.20;45.20;;;;;;4978282;28;20513;-75
2022/07/22 14:34:19;;;;;;;0.90;0.67;;;34.60;45.30;;;;;;4978294;28;20528;-74
2022/07/22 14:36:46;;;;;;;1.10;0.80;;;34.80;44.50;;;;;;4978237;28;20450;-74
2022/07/22 14:39:13;;;;;;;0.83;0.83;;;34.70;44.50;;;;;;4978226;28;20446;-74
2022/07/22 14:41:40;;;;;;;0.88;0.88;;;34.50;44.20;;;;;;4978085;28;20498;-74
2022/07/22 14:44:06;;;;;;;0.80;0.70;;;34.00;44.50;;;;;;4978117;28;20207;-74
2022/07/22 14:46:34;;;;;;;0.70;0.70;;;34.00;44.80;;;;;;4977836;28;20450;-75
2022/07/22 14:49:01;;;;;;;0.80;0.70;;;34.00;45.50;;;;;;4977737;28;20876;-75
2022/07/22 14:51:27;;;;;;;1.43;0.80;;;34.10;44.60;;;;;;4977871;28;20481;-75
2022/07/22 14:53:54;;;;;;;0.70;0.70;;;34.00;44.80;;;;;;4977960;28;20450;-74
2022/07/22 14:56:21;;;;;;;0.80;0.80;;;34.00;45.00;;;;;;4977894;28;20453;-74
2022/07/22 14:58:47;;;;;;;0.70;0.70;;;34.20;45.40;;;;;;4977896;28;20449;-74
2022/07/22 15:01:14;;;;;;;0.80;0.80;;;34.50;43.60;;;;;;4977576;28;20501;-75
2022/07/22 15:03:43;;;;;;;0.80;0.80;;;34.40;44.10;;;;;;4977732;28;20500;-74
2022/07/22 15:06:10;;;;;;;0.80;0.80;;;34.30;43.80;;;;;;4977782;28;20453;-75
2022/07/22 15:08:37;;;;;;;0.90;0.80;;;34.30;42.50;;;;;;4977722;28;20493;-74
2022/07/22 15:11:03;;;;;;;1.20;0.90;;;34.50;43.30;;;;;;4977624;28;20524;-75
2022/07/22 15:13:30;;;;;;;0.70;0.60;;;34.90;43.90;;;;;;4977573;28;20493;-75
2022/07/22 15:15:58;;;;;;;0.70;0.70;;;35.30;44.10;;;;;;4978953;28;20456;-75
2022/07/22 15:18:25;;;;;;;0.70;0.70;;;34.90;42.80;;;;;;4977501;28;20207;-75
2022/07/22 15:20:55;;;;;;;0.70;0.60;;;34.60;43.60;;;;;;4977416;28;20465;-75
2022/07/22 15:23:22;;;;;;;0.77;0.70;;;34.20;44.10;;;;;;4977216;28;20921;-75
2022/07/22 15:25:49;;;;;;;0.80;0.80;;;34.00;44.30;;;;;;4977462;28;20453;-74
2022/07/22 15:28:16;;;;;;;0.70;0.70;;;33.70;44.40;;;;;;4978144;28;20843;-74
2022/07/22 15:30:42;;;;;;;0.70;0.70;;;33.60;44.40;;;;;;4976467;28;20449;-74
2022/07/22 15:33:09;;;;;;;0.77;0.77;;;33.40;44.80;;;;;;4977227;28;20233;-74
2022/07/22 15:35:36;;;;;;;0.80;0.80;;;33.40;45.10;;;;;;4977261;28;20465;-75
2022/07/22 15:38:04;;;;;;;0.70;0.60;;;33.70;44.30;;;;;;4977175;28;20449;-75
2022/07/22 15:40:30;;;;;;;0.80;0.77;;;34.20;44.60;;;;;;4977047;28;20512;-75
2022/07/22 15:42:57;;;;;;;0.80;0.80;;;34.40;43.40;;;;;;4977099;28;20449;-75
2022/07/22 15:45:24;;;;;;;0.70;0.70;;;34.40;43.00;;;;;;4977060;28;20454;-75
2022/07/22 15:47:51;;;;;;;0.80;0.73;;;34.50;43.90;;;;;;4976983;28;20442;-75
2022/07/22 15:50:20;;;;;;;0.70;0.63;;;34.70;43.90;;;;;;4976963;28;20500;-75
2022/07/22 15:52:47;;;;;;;0.80;0.80;;;34.70;43.90;;;;;;4976803;28;20492;-75